Time;durP1;ratioP1;P1;durP2;ratioP2;P2;SDS_P1;SDS_P2;PMS_P1;PMS_P2;Temp;Humidity;BMP_temperature;BMP_pressure;BME280_temperature;BME280_humidity;BME280_pressure;Samples;Min_cycle;Max_cycle;Signal;HPM_P1;HPM_P2
2024/01/21 00:00:09;;;;;;;8.10;4.37;;;;;;;-1.85;100.00;101796.13;5029887;28;20040;-71
2024/01/21 00:02:34;;;;;;;8.30;3.93;;;;;;;-2.52;100.00;101729.84;5030871;28;20037;-70
2024/01/21 00:05:00;;;;;;;6.33;3.80;;;;;;;-2.09;100.00;101812.03;5031057;28;20037;-69
2024/01/21 00:07:25;;;;;;;6.00;3.73;;;;;;;-1.95;100.00;101824.59;5030998;28;20032;-70
2024/01/21 00:09:51;;;;;;;8.93;4.67;;;;;;;-2.11;100.00;101809.34;5026466;28;20048;-70
2024/01/21 00:12:16;;;;;;;8.07;5.90;;;;;;;-1.99;100.00;101814.88;5031323;28;20036;-70
2024/01/21 00:14:41;;;;;;;6.93;4.07;;;;;;;-1.83;100.00;101835.16;5030212;28;20495;-70
2024/01/21 00:17:07;;;;;;;6.70;3.87;;;;;;;-2.02;100.00;101827.19;5030381;28;20049;-70
2024/01/21 00:19:33;;;;;;;5.67;3.70;;;;;;;-1.93;100.00;101832.34;5029739;28;20824;-69
2024/01/21 00:21:58;;;;;;;7.07;3.40;;;;;;;-1.84;100.00;101851.06;5030796;28;20025;-70
2024/01/21 00:24:24;;;;;;;6.67;3.90;;;;;;;-1.91;100.00;101816.59;5030015;28;20026;-73
2024/01/21 00:26:49;;;;;;;6.40;3.70;;;;;;;-1.71;100.00;101836.47;5030059;28;20060;-70
2024/01/21 00:29:16;;;;;;;6.70;3.83;;;;;;;-1.94;100.00;101816.28;5029848;28;20033;-70
2024/01/21 00:31:42;;;;;;;6.63;3.50;;;;;;;-2.07;100.00;101820.72;5030934;28;20029;-72
2024/01/21 00:34:07;;;;;;;6.67;3.57;;;;;;;-2.07;100.00;101856.16;5043912;28;20045;-74
2024/01/21 00:36:33;;;;;;;5.70;3.60;;;;;;;-2.30;100.00;101826.69;5029511;28;20038;-75
2024/01/21 00:38:58;;;;;;;6.47;3.80;;;;;;;-2.15;100.00;101855.31;5029623;28;20091;-69
2024/01/21 00:41:24;;;;;;;6.57;3.70;;;;;;;-2.29;100.00;101841.16;5030410;28;20101;-70
2024/01/21 00:43:49;;;;;;;7.53;4.30;;;;;;;-2.33;100.00;101846.56;5028524;28;20028;-69
2024/01/21 00:46:15;;;;;;;6.27;3.93;;;;;;;-2.35;100.00;101855.66;5031078;28;20038;-69
2024/01/21 00:48:41;;;;;;;6.87;3.90;;;;;;;-2.45;100.00;101849.53;5029505;28;20179;-69
2024/01/21 00:51:06;;;;;;;6.97;3.67;;;;;;;-2.48;100.00;101823.00;5030340;28;20021;-72
2024/01/21 00:53:32;;;;;;;8.87;4.10;;;;;;;-2.11;100.00;101865.03;5029377;28;20033;-73
2024/01/21 00:55:57;;;;;;;7.67;3.97;;;;;;;-2.06;100.00;101845.28;5030341;28;20025;-71
2024/01/21 00:58:23;;;;;;;7.33;4.10;;;;;;;-1.96;100.00;101874.31;5029799;28;20033;-69
2024/01/21 01:00:48;;;;;;;12.50;7.13;;;;;;;-1.96;100.00;101851.53;5029158;28;20130;-70
2024/01/21 01:03:14;;;;;;;6.97;3.90;;;;;;;-1.95;100.00;101844.84;5029497;28;20033;-70
2024/01/21 01:05:39;;;;;;;6.80;3.93;;;;;;;-2.44;100.00;101770.44;5029864;28;20025;-72
2024/01/21 01:08:05;;;;;;;7.00;3.87;;;;;;;-2.07;100.00;101834.25;5029815;28;20047;-70
2024/01/21 01:10:30;;;;;;;7.67;4.60;;;;;;;-1.98;100.00;101844.53;5029700;28;20099;-72
2024/01/21 01:12:58;;;;;;;7.53;3.77;;;;;;;-1.93;100.00;101861.09;5029075;28;20022;-73
2024/01/21 01:15:23;;;;;;;7.33;4.17;;;;;;;-2.05;100.00;101852.16;5030351;28;20111;-72
2024/01/21 01:17:51;;;;;;;6.63;4.47;;;;;;;-1.96;100.00;101859.13;5028521;28;20516;-70
2024/01/21 01:20:17;;;;;;;7.30;4.60;;;;;;;-1.92;100.00;101842.63;5029646;28;20069;-72
2024/01/21 01:22:43;;;;;;;6.53;4.17;;;;;;;-2.05;100.00;101847.09;5029067;28;20507;-70
2024/01/21 01:25:08;;;;;;;8.13;4.10;;;;;;;-1.98;100.00;101862.22;5029207;28;20120;-70
2024/01/21 01:27:34;;;;;;;10.77;5.60;;;;;;;-1.97;100.00;101862.41;5029947;28;20060;-68
2024/01/21 01:29:59;;;;;;;8.47;4.57;;;;;;;-1.85;100.00;101851.81;5027791;28;20065;-69
2024/01/21 01:32:26;;;;;;;8.53;4.60;;;;;;;-1.67;100.00;101870.59;5029120;28;20036;-68
2024/01/21 01:34:55;;;;;;;7.87;4.27;;;;;;;-1.65;100.00;101875.09;5028797;28;20028;-69
2024/01/21 01:37:23;;;;;;;7.10;4.47;;;;;;;-1.75;100.00;101873.97;5028746;28;20480;-69
2024/01/21 01:39:49;;;;;;;6.27;3.63;;;;;;;-1.94;100.00;101856.75;5028876;28;20491;-71
2024/01/21 01:42:14;;;;;;;9.13;4.10;;;;;;;-1.92;100.00;101862.00;5028990;28;20033;-68
2024/01/21 01:44:40;;;;;;;8.40;4.20;;;;;;;-2.17;100.00;101796.03;5029164;28;20038;-71
2024/01/21 01:47:09;;;;;;;6.73;4.30;;;;;;;-1.83;100.00;101847.81;5029535;28;20042;-73
2024/01/21 01:49:37;;;;;;;6.55;3.63;;;;;;;-2.13;100.00;101781.38;5034046;28;20450;-69
2024/01/21 01:52:03;;;;;;;6.53;3.67;;;;;;;-2.07;100.00;101770.13;5033229;28;20099;-70
2024/01/21 01:54:30;;;;;;;6.57;4.20;;;;;;;-1.35;100.00;101875.72;5033238;28;20040;-69
2024/01/21 01:56:55;;;;;;;8.90;4.33;;;;;;;-1.29;100.00;101872.97;5032994;28;20029;-68
2024/01/21 01:59:22;;;;;;;8.03;4.50;;;;;;;-1.25;100.00;101878.50;5033337;28;20395;-70
2024/01/21 02:01:47;;;;;;;8.27;4.87;;;;;;;-1.61;100.00;101799.47;5033122;28;20420;-69
2024/01/21 02:04:13;;;;;;;10.07;5.47;;;;;;;-1.22;100.00;101876.31;5032957;28;20071;-69
2024/01/21 02:06:39;;;;;;;10.10;5.20;;;;;;;-1.89;100.00;101784.75;5032623;28;20026;-70
2024/01/21 02:09:05;;;;;;;9.67;4.73;;;;;;;-1.52;100.00;101882.41;5033134;28;20026;-71
2024/01/21 02:11:32;;;;;;;7.63;4.10;;;;;;;-1.85;100.00;101861.94;5032276;28;20021;-72
2024/01/21 02:13:57;;;;;;;5.90;3.70;;;;;;;-1.66;100.00;101880.94;5032496;28;20026;-69
2024/01/21 02:16:23;;;;;;;6.43;3.80;;;;;;;-1.62;100.00;101884.66;5032962;28;20031;-68
2024/01/21 02:18:50;;;;;;;12.83;7.00;;;;;;;-1.53;100.00;101882.25;5031314;28;20033;-70
2024/01/21 02:21:15;;;;;;;15.50;9.50;;;;;;;-1.51;100.00;101886.75;5032178;28;20040;-69
2024/01/21 02:23:43;;;;;;;10.20;6.43;;;;;;;-1.48;100.00;101887.06;5030194;28;20033;-68
2024/01/21 02:26:08;;;;;;;13.47;6.97;;;;;;;-1.42;100.00;101885.94;5031299;28;20029;-68
2024/01/21 02:28:34;;;;;;;11.07;6.23;;;;;;;-2.02;100.00;101797.72;5022121;28;20032;-70
2024/01/21 02:30:59;;;;;;;10.70;7.10;;;;;;;-1.49;100.00;101887.78;5031814;28;20025;-69
2024/01/21 02:33:26;;;;;;;10.67;6.93;;;;;;;-1.44;100.00;101900.97;5031296;28;20069;-75
2024/01/21 02:35:51;;;;;;;8.57;5.93;;;;;;;-1.51;100.00;101883.31;5030640;28;20041;-70
2024/01/21 02:38:17;;;;;;;10.17;5.67;;;;;;;-1.57;100.00;101865.81;5031742;28;20134;-72
2024/01/21 02:40:43;;;;;;;9.00;5.47;;;;;;;-1.84;100.00;101829.19;5030589;28;20472;-73
2024/01/21 02:43:08;;;;;;;8.87;5.10;;;;;;;-1.45;100.00;101891.56;5031017;28;20029;-69
2024/01/21 02:45:35;;;;;;;11.00;6.80;;;;;;;-1.44;100.00;101890.84;5031453;28;20466;-71
2024/01/21 02:48:01;;;;;;;11.90;6.37;;;;;;;-1.53;100.00;101882.25;5028764;28;20045;-70
2024/01/21 02:50:26;;;;;;;16.60;8.00;;;;;;;-1.51;100.00;101875.72;5031613;28;20109;-71
2024/01/21 02:52:51;;;;;;;15.40;8.57;;;;;;;-1.33;100.00;101897.06;5030742;28;20079;-72
2024/01/21 02:55:17;;;;;;;13.20;7.40;;;;;;;-1.51;100.00;101870.63;5030748;28;20030;-69
2024/01/21 02:57:43;;;;;;;13.77;8.97;;;;;;;-1.39;100.00;101891.34;5031130;28;20083;-69
2024/01/21 03:00:09;;;;;;;16.23;10.17;;;;;;;-1.50;100.00;101880.94;5030589;28;20120;-67
2024/01/21 03:02:35;;;;;;;13.97;8.70;;;;;;;-1.86;100.00;101807.84;5030762;28;20119;-69
2024/01/21 03:05:01;;;;;;;13.87;8.20;;;;;;;-1.43;100.00;101884.13;5031366;28;20028;-67
2024/01/21 03:07:26;;;;;;;11.37;7.60;;;;;;;-1.33;100.00;101879.34;5030799;28;20037;-70
2024/01/21 03:09:52;;;;;;;10.97;5.83;;;;;;;-1.27;100.00;101879.06;5030314;28;20092;-71
2024/01/21 03:12:17;;;;;;;8.33;4.50;;;;;;;-1.23;100.00;101879.56;5045173;28;20557;-69
2024/01/21 03:14:43;;;;;;;7.03;4.30;;;;;;;-1.65;100.00;101813.44;5030585;28;20052;-67
2024/01/21 03:17:09;;;;;;;7.03;4.40;;;;;;;-1.18;100.00;101892.75;4987225;28;1282183;-70
2024/01/21 03:19:34;;;;;;;7.67;4.30;;;;;;;-1.41;100.00;101862.41;5031204;28;20041;-69
2024/01/21 03:22:00;;;;;;;7.97;4.53;;;;;;;-1.27;100.00;101892.66;5031588;28;20086;-69
2024/01/21 03:24:26;;;;;;;15.20;9.13;;;;;;;-1.25;100.00;101893.69;5031510;28;20574;-69
2024/01/21 03:26:51;;;;;;;12.03;5.77;;;;;;;-1.33;100.00;101880.22;5032107;28;20068;-69
2024/01/21 03:29:17;;;;;;;8.03;4.33;;;;;;;-1.23;100.00;101878.69;5031325;28;20025;-70
2024/01/21 03:31:42;;;;;;;18.20;9.97;;;;;;;-1.38;100.00;101868.69;5031396;28;20104;-68
2024/01/21 03:34:08;;;;;;;10.77;6.73;;;;;;;-1.54;100.00;101855.13;5030650;28;20496;-68
2024/01/21 03:36:33;;;;;;;10.33;6.17;;;;;;;-1.42;100.00;101889.38;5031004;28;20152;-67
2024/01/21 03:38:59;;;;;;;10.57;5.83;;;;;;;-1.27;100.00;101897.72;5031717;28;20491;-68
2024/01/21 03:41:24;;;;;;;20.17;9.20;;;;;;;-1.23;100.00;101904.91;5031442;28;20037;-69
2024/01/21 03:43:50;;;;;;;9.80;5.00;;;;;;;-1.27;100.00;101897.72;5031267;28;20025;-69
2024/01/21 03:46:16;;;;;;;7.63;4.70;;;;;;;-1.36;100.00;101868.84;5031126;28;20036;-68
2024/01/21 03:48:42;;;;;;;9.20;5.57;;;;;;;-1.25;100.00;101878.50;5030857;28;20033;-72
2024/01/21 03:51:10;;;;;;;9.93;4.93;;;;;;;-1.05;100.00;101900.00;5031478;28;20416;-72
2024/01/21 03:53:39;;;;;;;7.47;4.20;;;;;;;-1.12;100.00;101892.47;5030153;28;20554;-69
2024/01/21 03:56:05;;;;;;;7.63;4.10;;;;;;;-1.15;100.00;101893.97;5031086;28;20108;-72
2024/01/21 03:58:31;;;;;;;7.57;4.53;;;;;;;-1.23;100.00;101873.63;5030655;28;20063;-70
2024/01/21 04:00:56;;;;;;;8.87;5.33;;;;;;;-1.05;100.00;101894.94;5030366;28;20026;-70
2024/01/21 04:03:22;;;;;;;8.37;5.20;;;;;;;-1.04;100.00;101891.69;5030329;28;20038;-68
2024/01/21 04:05:47;;;;;;;9.40;5.50;;;;;;;-1.08;100.00;101871.81;5030357;28;20026;-70
2024/01/21 04:08:13;;;;;;;8.47;5.30;;;;;;;-1.10;100.00;101855.53;5031155;28;20037;-70
2024/01/21 04:10:39;;;;;;;9.27;5.57;;;;;;;-0.88;100.00;101900.16;5028851;28;20041;-70
2024/01/21 04:13:05;;;;;;;9.57;5.70;;;;;;;-0.82;100.00;101888.13;5030510;28;20059;-70
2024/01/21 04:15:31;;;;;;;10.30;5.57;;;;;;;-1.13;100.00;101853.59;5031274;28;20483;-69
2024/01/21 04:17:56;;;;;;;9.13;5.50;;;;;;;-1.00;100.00;101897.25;5044247;28;20050;-69
2024/01/21 04:20:21;;;;;;;8.77;5.10;;;;;;;-1.03;100.00;101906.16;5029842;28;20559;-72
2024/01/21 04:22:47;;;;;;;8.90;5.40;;;;;;;-1.21;100.00;101905.06;5031158;28;20487;-69
2024/01/21 04:25:12;;;;;;;18.33;7.63;;;;;;;-1.36;100.00;101910.31;5030321;28;20036;-69
2024/01/21 04:27:38;;;;;;;12.20;6.37;;;;;;;-1.56;100.00;101882.78;5030187;28;20079;-74
2024/01/21 04:30:04;;;;;;;11.17;5.60;;;;;;;-1.41;100.00;101901.28;5030029;28;20044;-72
2024/01/21 04:32:30;;;;;;;10.57;5.40;;;;;;;-1.67;100.00;101898.47;5044107;28;20115;-69
2024/01/21 04:34:56;;;;;;;9.53;4.93;;;;;;;-1.72;100.00;101905.56;5030399;28;20031;-71
2024/01/21 04:37:22;;;;;;;9.10;5.23;;;;;;;-1.80;100.00;101901.28;5023935;28;20109;-69
2024/01/21 04:39:47;;;;;;;8.40;5.07;;;;;;;-1.86;100.00;101909.09;5030042;28;20129;-70
2024/01/21 04:42:13;;;;;;;9.53;5.13;;;;;;;-1.84;100.00;101906.78;5030551;28;20029;-69
2024/01/21 04:44:39;;;;;;;9.67;5.23;;;;;;;-1.96;100.00;101912.28;5030441;28;20391;-70
2024/01/21 04:47:05;;;;;;;9.20;4.87;;;;;;;-2.11;100.00;101923.22;5031356;28;20407;-70
2024/01/21 04:49:30;;;;;;;16.33;7.40;;;;;;;-2.17;100.00;101908.28;5031113;28;20060;-70
2024/01/21 04:51:56;;;;;;;16.87;7.03;;;;;;;-2.14;100.00;101922.91;5031498;28;20029;-70
2024/01/21 04:54:22;;;;;;;23.40;11.60;;;;;;;-2.23;100.00;101931.97;5030594;28;20037;-70
2024/01/21 04:56:48;;;;;;;22.70;11.37;;;;;;;-2.30;100.00;101928.75;5031029;28;20072;-71
2024/01/21 04:59:13;;;;;;;33.77;11.33;;;;;;;-2.37;100.00;101928.78;5030065;28;20496;-75
2024/01/21 05:01:39;;;;;;;29.90;9.13;;;;;;;-2.41;100.00;101915.66;5029888;28;20480;-69
2024/01/21 05:04:05;;;;;;;30.27;9.60;;;;;;;-2.21;100.00;101935.59;5029959;28;20067;-70
2024/01/21 05:06:30;;;;;;;21.17;8.30;;;;;;;-2.22;100.00;101914.44;5030304;28;20072;-70
2024/01/21 05:08:56;;;;;;;17.80;7.80;;;;;;;-2.10;100.00;101917.44;5029475;28;20033;-70
2024/01/21 05:11:21;;;;;;;12.13;6.07;;;;;;;-1.89;100.00;101936.63;5029563;28;20122;-70
2024/01/21 05:13:47;;;;;;;9.40;5.10;;;;;;;-1.94;100.00;101937.75;5029669;28;20036;-69
2024/01/21 05:16:12;;;;;;;9.97;5.03;;;;;;;-2.18;100.00;101944.44;5030683;28;20519;-70
2024/01/21 05:18:41;;;;;;;10.33;5.27;;;;;;;-2.57;100.00;101910.50;5029586;28;20037;-70
2024/01/21 05:21:06;;;;;;;12.03;6.07;;;;;;;-2.90;100.00;101899.28;5029511;28;20065;-71
2024/01/21 05:23:35;;;;;;;14.30;7.43;;;;;;;-2.77;100.00;101932.81;5029320;28;20072;-70
2024/01/21 05:26:00;;;;;;;19.60;9.40;;;;;;;-3.25;100.00;101855.75;5029950;28;20055;-70
2024/01/21 05:28:26;;;;;;;17.33;9.43;;;;;;;-2.83;100.00;101947.28;5030660;28;20038;-73
2024/01/21 05:30:52;;;;;;;12.20;7.20;;;;;;;-2.73;100.00;101958.41;5029424;28;20504;-74
2024/01/21 05:33:17;;;;;;;14.60;7.73;;;;;;;-2.60;100.00;101959.09;5029744;28;20514;-70
2024/01/21 05:35:43;;;;;;;17.03;8.33;;;;;;;-2.58;100.00;101964.31;5029387;28;20097;-70
2024/01/21 05:38:08;;;;;;;15.67;7.97;;;;;;;-2.56;100.00;101956.19;5030016;28;20120;-76
2024/01/21 05:40:35;;;;;;;12.80;7.37;;;;;;;-2.61;100.00;101963.22;5029438;28;20041;-71
2024/01/21 05:43:01;;;;;;;17.57;9.50;;;;;;;-2.60;100.00;101969.22;5029480;28;20056;-72
2024/01/21 05:45:27;;;;;;;18.13;9.90;;;;;;;-2.72;100.00;101935.84;5028953;28;20121;-72
2024/01/21 05:47:52;;;;;;;17.03;8.57;;;;;;;-2.55;100.00;101973.16;5029515;28;20068;-77
2024/01/21 05:50:18;;;;;;;14.13;7.80;;;;;;;-2.69;100.00;101953.91;5029345;28;20072;-77
2024/01/21 05:52:45;;;;;;;16.47;8.00;;;;;;;-2.49;100.00;101976.38;5029740;28;20029;-72
2024/01/21 05:55:11;;;;;;;16.73;7.80;;;;;;;-2.47;100.00;101985.06;5029621;28;20075;-72
2024/01/21 05:57:36;;;;;;;12.20;7.07;;;;;;;-3.01;100.00;101877.84;5029440;28;20029;-72
2024/01/21 06:00:02;;;;;;;14.37;7.27;;;;;;;-2.48;100.00;101994.97;5029117;28;20030;-75
2024/01/21 06:02:28;;;;;;;14.73;7.70;;;;;;;-3.01;100.00;101898.03;5029397;28;20033;-72
2024/01/21 06:04:53;;;;;;;16.00;6.53;;;;;;;-2.43;100.00;101996.38;5029785;28;20031;-72
2024/01/21 06:07:19;;;;;;;21.10;10.23;;;;;;;-2.47;100.00;101999.31;5029390;28;20400;-72
2024/01/21 06:09:46;;;;;;;20.97;10.67;;;;;;;-2.49;100.00;102005.84;5024252;28;20488;-71
2024/01/21 06:12:11;;;;;;;22.80;12.20;;;;;;;-2.46;100.00;102006.16;5027149;28;20124;-72
2024/01/21 06:14:37;;;;;;;28.23;12.83;;;;;;;-2.42;100.00;102017.53;5026448;28;20594;-72
2024/01/21 06:17:02;;;;;;;22.57;10.67;;;;;;;-2.41;100.00;102022.78;5026903;28;20045;-72
2024/01/21 06:19:28;;;;;;;21.70;10.07;;;;;;;-2.35;100.00;102007.41;5026057;28;20042;-73
2024/01/21 06:21:53;;;;;;;24.50;10.07;;;;;;;-2.22;100.00;102018.16;5026215;28;20045;-72
2024/01/21 06:24:19;;;;;;;20.40;10.83;;;;;;;-2.21;100.00;102022.50;5023021;28;20087;-72
2024/01/21 06:26:45;;;;;;;21.30;9.90;;;;;;;-2.26;100.00;102018.53;5026293;28;20045;-73
2024/01/21 06:29:10;;;;;;;22.13;9.23;;;;;;;-2.28;100.00;102025.97;5009854;28;20037;-71
2024/01/21 06:31:36;;;;;;;25.13;10.53;;;;;;;-2.85;100.00;101913.34;5026780;28;20797;-71
2024/01/21 06:34:02;;;;;;;25.37;11.83;;;;;;;-2.16;100.00;102039.09;5028053;28;20511;-72
2024/01/21 06:36:28;;;;;;;23.50;10.67;;;;;;;-2.16;100.00;102041.63;5029847;28;20041;-71
2024/01/21 06:38:53;;;;;;;21.07;11.37;;;;;;;-2.25;100.00;102022.00;5029856;28;20124;-71
2024/01/21 06:41:19;;;;;;;23.13;9.50;;;;;;;-2.12;100.00;102050.47;5030903;28;20120;-74
2024/01/21 06:43:44;;;;;;;27.57;14.03;;;;;;;-2.11;100.00;102057.34;5031713;28;20128;-72
2024/01/21 06:46:10;;;;;;;22.83;11.97;;;;;;;-2.28;100.00;102073.13;5032333;28;20450;-73
2024/01/21 06:48:36;;;;;;;21.00;11.03;;;;;;;-2.43;100.00;102057.09;5032227;28;20034;-73
2024/01/21 06:51:09;;;;;;;22.80;13.07;;;;;;;-2.31;100.00;102065.19;5032666;28;20026;-73
2024/01/21 06:53:35;;;;;;;19.80;11.87;;;;;;;-2.32;100.00;102078.56;5032180;28;20044;-73
2024/01/21 06:56:05;;;;;;;31.63;14.10;;;;;;;-2.45;100.00;102074.63;5031084;28;20026;-75
2024/01/21 06:58:30;;;;;;;26.73;15.33;;;;;;;-2.37;100.00;102075.50;5032846;28;20112;-75
2024/01/21 07:00:56;;;;;;;22.67;12.10;;;;;;;-2.28;100.00;102085.75;5031652;28;20120;-75
2024/01/21 07:03:21;;;;;;;21.17;10.90;;;;;;;-2.20;100.00;102079.97;5031787;28;20416;-72
2024/01/21 07:05:47;;;;;;;38.37;14.90;;;;;;;-2.30;100.00;102051.81;5029098;28;20431;-73
2024/01/21 07:08:13;;;;;;;58.93;16.60;;;;;;;-2.07;100.00;102082.25;5028227;28;20026;-73
2024/01/21 07:10:39;;;;;;;92.13;19.70;;;;;;;-1.96;100.00;102086.00;5029559;28;20021;-73
2024/01/21 07:13:04;;;;;;;77.30;18.47;;;;;;;-1.98;100.00;102065.59;5030399;28;20396;-74
2024/01/21 07:15:30;;;;;;;87.33;16.83;;;;;;;-2.01;100.00;102046.63;5032656;28;20076;-72
2024/01/21 07:17:56;;;;;;;86.63;16.60;;;;;;;-1.93;100.00;102075.31;5031449;28;20061;-72
2024/01/21 07:20:21;;;;;;;68.57;14.07;;;;;;;-2.16;100.00;102041.63;5031473;28;20044;-71
2024/01/21 07:22:47;;;;;;;54.67;15.10;;;;;;;-1.99;100.00;102070.50;5031564;28;20592;-71
2024/01/21 07:25:15;;;;;;;77.43;21.23;;;;;;;-2.02;100.00;102076.09;5013760;28;20053;-70
2024/01/21 07:27:42;;;;;;;60.07;18.27;;;;;;;-2.26;100.00;102078.38;5030290;28;20038;-70
2024/01/21 07:30:10;;;;;;;60.27;18.27;;;;;;;-2.34;100.00;102062.31;5021654;28;20033;-70
2024/01/21 07:32:38;;;;;;;48.33;17.17;;;;;;;-2.17;100.00;102089.53;5031267;28;20528;-72
2024/01/21 07:35:04;;;;;;;57.27;15.27;;;;;;;-2.30;100.00;102092.28;5031539;28;20430;-71
2024/01/21 07:37:29;;;;;;;39.87;13.90;;;;;;;-2.39;100.00;102076.03;5032136;28;20029;-71
2024/01/21 07:39:55;;;;;;;57.50;15.50;;;;;;;-2.33;100.00;102099.53;5031275;28;20037;-71
2024/01/21 07:42:20;;;;;;;43.80;16.50;;;;;;;-3.16;100.00;101935.09;5031909;28;20044;-74
2024/01/21 07:44:46;;;;;;;49.53;20.07;;;;;;;-2.15;100.00;102062.78;5024449;28;20393;-70
2024/01/21 07:47:11;;;;;;;41.53;20.90;;;;;;;-1.82;100.00;102106.19;5045994;28;20042;-72
2024/01/21 07:49:38;;;;;;;41.87;18.30;;;;;;;-1.75;100.00;102086.63;5030978;28;20055;-72
2024/01/21 07:52:04;;;;;;;44.60;19.67;;;;;;;-1.54;100.00;102094.09;5031196;28;20503;-76
2024/01/21 07:54:30;;;;;;;40.87;19.83;;;;;;;-1.37;100.00;102095.97;5012410;28;20131;-72
2024/01/21 07:56:56;;;;;;;38.90;19.90;;;;;;;-1.75;100.00;102014.09;5030874;28;20021;-73
2024/01/21 07:59:21;;;;;;;40.00;20.07;;;;;;;-1.20;100.00;102099.47;5031061;28;20419;-71
2024/01/21 08:01:48;;;;;;;37.67;20.77;;;;;;;-1.10;100.00;102109.00;5031478;28;20119;-73
2024/01/21 08:04:13;;;;;;;26.43;16.13;;;;;;;-1.14;100.00;102103.56;5030816;28;20448;-73
2024/01/21 08:06:39;;;;;;;23.40;15.60;;;;;;;-1.17;100.00;102103.25;5029623;28;20491;-72
2024/01/21 08:09:05;;;;;;;21.80;13.43;;;;;;;-1.10;100.00;102109.00;5045364;28;20041;-73
2024/01/21 08:11:31;;;;;;;20.37;12.03;;;;;;;-1.05;100.00;102103.66;5030675;28;20396;-74
2024/01/21 08:13:56;;;;;;;21.53;14.10;;;;;;;-1.41;100.00;102060.88;5029485;28;21394;-74
2024/01/21 08:16:22;;;;;;;23.70;13.20;;;;;;;-1.81;100.00;102016.88;5031418;28;20037;-73
2024/01/21 08:18:47;;;;;;;21.00;13.23;;;;;;;-1.35;100.00;102103.75;5030711;28;20480;-74
2024/01/21 08:21:13;;;;;;;20.00;10.73;;;;;;;-1.32;100.00;102106.63;5031459;28;20037;-72
2024/01/21 08:23:40;;;;;;;20.97;12.60;;;;;;;-1.49;100.00;102077.75;5030356;28;20400;-72
2024/01/21 08:26:06;;;;;;;19.97;11.77;;;;;;;-1.10;100.00;102114.06;5031136;28;20083;-72
2024/01/21 08:28:32;;;;;;;20.50;12.23;;;;;;;-1.00;100.00;102106.72;5031509;28;20021;-71
2024/01/21 08:30:58;;;;;;;22.77;14.30;;;;;;;-0.79;100.00;102113.25;5030459;28;20123;-71
2024/01/21 08:33:23;;;;;;;26.37;18.00;;;;;;;-0.66;100.00;102118.03;5030398;28;20068;-71
2024/01/21 08:35:49;;;;;;;25.07;15.70;;;;;;;-0.83;100.00;102085.75;5030459;28;20037;-71
2024/01/21 08:38:14;;;;;;;52.60;34.40;;;;;;;-0.69;100.00;102116.03;5030447;28;20041;-71
2024/01/21 08:40:40;;;;;;;22.07;14.77;;;;;;;-0.80;100.00;102113.97;5030629;28;20575;-70
2024/01/21 08:43:06;;;;;;;19.93;12.40;;;;;;;-1.03;100.00;102114.91;5030747;28;20029;-70
2024/01/21 08:45:32;;;;;;;22.13;12.67;;;;;;;-1.11;100.00;102128.34;5030253;28;20025;-70
2024/01/21 08:47:57;;;;;;;20.50;12.90;;;;;;;-1.04;100.00;102100.41;5030270;28;20025;-70
2024/01/21 08:50:23;;;;;;;17.70;10.70;;;;;;;-1.05;100.00;102097.72;5030827;28;20087;-70
2024/01/21 08:52:49;;;;;;;17.30;12.10;;;;;;;-1.11;100.00;102113.13;5030095;28;20419;-69
2024/01/21 08:55:14;;;;;;;17.97;10.37;;;;;;;-1.16;100.00;102107.59;5030102;28;20039;-70
2024/01/21 08:57:40;;;;;;;20.40;11.90;;;;;;;-1.01;100.00;102109.97;5029722;28;20119;-69
2024/01/21 09:00:06;;;;;;;18.30;12.23;;;;;;;-0.86;100.00;102110.75;5030570;28;20037;-70
2024/01/21 09:02:31;;;;;;;19.00;11.67;;;;;;;-0.78;100.00;102115.03;5029939;28;20043;-69
2024/01/21 09:04:57;;;;;;;15.87;10.30;;;;;;;-0.65;100.00;102107.13;5030075;28;20519;-69
2024/01/21 09:07:24;;;;;;;19.57;12.27;;;;;;;-0.61;100.00;102109.28;5030296;28;20033;-68
2024/01/21 09:09:50;;;;;;;18.27;12.13;;;;;;;-0.52;100.00;102107.72;5029933;28;20026;-70
2024/01/21 09:12:16;;;;;;;22.10;12.23;;;;;;;-0.60;100.00;102097.47;5029084;28;20029;-69
2024/01/21 09:14:42;;;;;;;22.63;13.23;;;;;;;-0.99;100.00;102008.00;5030005;28;20037;-70
2024/01/21 09:17:07;;;;;;;25.80;14.20;;;;;;;-0.26;100.00;102104.56;5029857;28;20637;-70
2024/01/21 09:19:33;;;;;;;22.53;12.53;;;;;;;-0.12;100.00;102100.94;5029560;28;20030;-70
2024/01/21 09:21:58;;;;;;;20.10;13.00;;;;;;;-0.42;100.00;102035.16;5030136;28;20061;-70
2024/01/21 09:24:24;;;;;;;18.93;11.80;;;;;;;-0.04;100.00;102096.66;5029156;28;20041;-70
2024/01/21 09:26:50;;;;;;;20.43;11.73;;;;;;;0.08;100.00;102092.88;5029333;28;20033;-71
2024/01/21 09:29:15;;;;;;;15.93;10.10;;;;;;;0.00;100.00;102063.25;5029577;28;20025;-70
2024/01/21 09:31:41;;;;;;;23.93;13.17;;;;;;;-0.20;100.00;102020.53;5030065;28;20026;-70
2024/01/21 09:34:06;;;;;;;20.13;12.70;;;;;;;0.04;100.00;102013.66;5029698;28;20057;-69
2024/01/21 09:36:34;;;;;;;15.43;9.82;;;;;;;0.65;100.00;102075.03;5029738;28;20774;-71
2024/01/21 09:39:02;;;;;;;15.63;8.23;;;;;;;0.75;100.00;102092.13;5030467;28;20459;-70
2024/01/21 09:41:46;;;;;;;16.33;8.88;;;;;;;0.89;100.00;102089.31;5010796;28;20079;-69
2024/01/21 09:44:11;;;;;;;20.58;12.85;;;;;;;1.07;100.00;102085.22;5029477;28;20044;-70
2024/01/21 09:46:37;;;;;;;21.40;13.88;;;;;;;1.24;100.00;102075.84;5030452;28;20026;-69
2024/01/21 09:49:04;;;;;;;15.32;9.65;;;;;;;1.22;100.00;102093.50;5029727;28;20068;-69
2024/01/21 09:51:30;;;;;;;16.52;9.88;;;;;;;0.83;100.00;102004.78;5029570;28;20470;-70
2024/01/21 09:53:56;;;;;;;20.42;10.50;;;;;;;1.18;100.00;102082.84;5030250;28;20037;-69
2024/01/21 09:56:22;;;;;;;18.95;12.60;;;;;;;0.72;100.00;101993.53;5029034;28;20037;-70
2024/01/21 09:58:50;;;;;;;14.68;6.38;;;;;;;1.18;100.00;102076.09;5029303;28;20044;-69
2024/01/21 10:01:16;;;;;;;12.02;6.55;;;;;;;1.06;100.00;102080.88;5029715;28;20033;-69
2024/01/21 10:03:44;;;;;;;10.02;5.70;;;;;;;0.89;100.00;102058.81;5029402;28;20034;-71
2024/01/21 10:06:11;;;;;;;9.05;5.55;;;;;;;1.01;100.00;102074.44;5029217;28;20108;-68
2024/01/21 10:08:38;;;;;;;10.98;5.03;;;;;;;0.96;100.00;102073.06;5030495;28;20064;-69
2024/01/21 10:11:04;;;;;;;7.78;4.35;;;;;;;1.17;100.00;102068.34;5032973;28;20030;-69
2024/01/21 10:13:39;;;;;;;5.18;3.00;;;;;;;1.30;100.00;102076.47;5033743;28;20035;-70
2024/01/21 10:16:06;;;;;;;7.20;3.75;;;;;;;1.39;100.00;102069.72;5015941;28;20166;-71
2024/01/21 10:18:31;;;;;;;6.70;3.20;;;;;;;1.36;100.00;102054.16;5033000;28;20053;-70
2024/01/21 10:20:58;;;;;;;8.30;3.83;;;;;;;1.63;100.00;102065.25;5033778;28;20086;-70
2024/01/21 10:23:23;;;;;;;9.05;3.92;;;;;;;1.63;100.00;102036.38;5032874;28;20037;-70
2024/01/21 10:25:49;;;;;;;6.47;3.20;;;;;;;1.48;100.00;102066.31;5032522;28;20547;-71
2024/01/21 10:28:16;;;;;;;5.95;3.45;;;;;;;1.51;100.00;102069.13;5032688;28;20044;-70
2024/01/21 10:30:46;;;;;;;7.07;2.97;;;;;;;1.31;100.00;102021.38;5033108;28;20586;-71
2024/01/21 10:33:13;;;;;;;6.13;3.45;;;;;;;1.39;100.00;102051.91;5032694;28;20183;-70
2024/01/21 10:35:39;;;;;;;6.20;3.80;;;;;;;1.61;100.00;102044.75;5032526;28;20488;-69
2024/01/21 10:38:15;;;;;;;6.05;3.50;;;;;;;1.83;100.00;102043.41;5032235;28;20036;-69
2024/01/21 10:40:44;;;;;;;8.00;3.75;;;;;;;2.00;100.00;102058.69;5032546;28;20044;-70
2024/01/21 10:43:14;;;;;;;7.88;3.58;;;;;;;1.78;100.00;102045.50;5032678;28;20037;-71
2024/01/21 10:45:46;;;;;;;5.53;3.30;;;;;;;1.56;100.00;101969.59;5033243;28;20029;-70
2024/01/21 10:48:15;;;;;;;6.13;3.08;;;;;;;1.99;100.00;102043.25;5032553;28;20107;-69
2024/01/21 10:50:44;;;;;;;4.82;2.70;;;;;;;2.03;100.00;102024.97;5032294;28;20068;-70
2024/01/21 10:53:16;;;;;;;5.07;3.13;;;;;;;2.04;100.00;102031.88;5032373;28;20033;-74
2024/01/21 10:55:44;;;;;;;4.45;2.22;;;;;;;2.39;100.00;102050.53;5031388;28;20032;-71
2024/01/21 10:58:10;;;;;;;7.20;2.28;;;;;;;2.31;100.00;102055.66;5031456;28;20021;-73
2024/01/21 11:00:37;;;;;;;3.10;1.75;;;;;;;2.00;100.00;102017.94;5032970;28;20055;-77
2024/01/21 11:03:31;;;;;;;4.10;1.88;;;;;;;2.02;100.00;102049.56;5031389;28;20057;-73
2024/01/21 11:06:03;;;;;;;4.60;2.30;;;;;;;2.16;100.00;102033.03;5027939;28;20034;-71